createdAt,value
2022-09-09T00:02:12.105Z,16.30
2022-09-09T00:04:40.656Z,16.20
2022-09-09T00:07:22.969Z,16.20
2022-09-09T00:10:09.958Z,16.20
2022-09-09T00:12:53.099Z,16.20
2022-09-09T00:15:40.791Z,16.20
2022-09-09T00:18:25.750Z,16.10
2022-09-09T00:21:36.253Z,16.10
2022-09-09T00:24:30.538Z,16.10
2022-09-09T00:27:13.558Z,16.10
2022-09-09T00:29:51.086Z,16.10
2022-09-09T00:32:19.782Z,16.10
2022-09-09T00:35:01.450Z,16.10
2022-09-09T00:37:29.777Z,16.10
2022-09-09T00:40:02.026Z,16.00
2022-09-09T00:42:44.832Z,16.00
2022-09-09T00:45:26.690Z,16.00
2022-09-09T00:51:04.824Z,15.90
2022-09-09T00:53:40.890Z,15.90
2022-09-09T00:56:16.052Z,15.90
2022-09-09T01:01:54.901Z,15.90
2022-09-09T01:04:31.888Z,15.90
2022-09-09T01:07:09.326Z,15.90
2022-09-09T01:18:59.364Z,16.00
2022-09-09T01:21:45.785Z,16.00
2022-09-09T01:24:36.217Z,16.00
2022-09-09T01:27:06.361Z,16.00
2022-09-09T01:29:33.936Z,16.00
2022-09-09T01:32:03.317Z,16.00
2022-09-09T01:34:39.274Z,16.00
2022-09-09T01:37:11.039Z,16.00
2022-09-09T01:39:40.063Z,16.00
2022-09-09T01:42:10.104Z,15.90
2022-09-09T01:44:39.082Z,15.90
2022-09-09T01:47:07.912Z,15.90
2022-09-09T01:49:35.003Z,15.90
2022-09-09T01:52:02.392Z,15.90
2022-09-09T01:54:32.486Z,15.90
2022-09-09T01:57:17.404Z,15.90
2022-09-09T02:00:11.616Z,15.90
2022-09-09T02:03:05.732Z,15.80
2022-09-09T02:05:39.392Z,15.80
2022-09-09T02:08:13.088Z,15.80
2022-09-09T02:10:54.779Z,15.80
2022-09-09T02:13:23.465Z,15.80
2022-09-09T02:16:25.615Z,15.80
2022-09-09T02:19:16.939Z,15.80
2022-09-09T02:21:46.402Z,15.80
2022-09-09T02:24:16.498Z,15.80
2022-09-09T02:26:47.419Z,15.80
2022-09-09T02:29:18.940Z,15.90
2022-09-09T02:31:49.710Z,15.90
2022-09-09T02:34:21.280Z,15.90
2022-09-09T02:36:49.267Z,16.00
2022-09-09T02:39:17.280Z,16.00
2022-09-09T02:41:44.282Z,16.00
2022-09-09T02:44:19.040Z,16.10
2022-09-09T02:47:08.855Z,16.10
2022-09-09T02:50:04.829Z,16.10
2022-09-09T02:52:47.364Z,16.10
2022-09-09T02:55:29.858Z,16.10
2022-09-09T02:57:59.368Z,16.10
2022-09-09T03:00:29.036Z,16.20
2022-09-09T03:02:56.355Z,16.20
2022-09-09T03:05:23.384Z,16.20
2022-09-09T03:07:51.651Z,16.20
2022-09-09T03:10:18.979Z,16.20
2022-09-09T03:12:45.875Z,16.20
2022-09-09T03:15:12.720Z,16.20
2022-09-09T03:17:39.709Z,16.20
2022-09-09T03:20:07.159Z,16.20
2022-09-09T03:22:34.271Z,16.20
2022-09-09T03:25:01.455Z,16.20
2022-09-09T03:27:28.353Z,16.20
2022-09-09T03:29:55.456Z,16.10
2022-09-09T03:32:23.567Z,16.10
2022-09-09T03:34:50.770Z,16.10
2022-09-09T03:37:18.855Z,16.10
2022-09-09T03:39:46.229Z,16.10
2022-09-09T03:42:19.892Z,16.00
2022-09-09T03:44:52.452Z,16.10
2022-09-09T03:47:20.642Z,16.00
2022-09-09T03:49:47.747Z,16.00
2022-09-09T03:52:20.464Z,16.00
2022-09-09T03:54:49.837Z,16.00
2022-09-09T03:57:17.910Z,16.00
2022-09-09T03:59:45.017Z,15.90
2022-09-09T04:02:11.929Z,15.90
2022-09-09T04:04:38.915Z,15.90
2022-09-09T04:07:07.982Z,15.90
2022-09-09T04:09:35.889Z,15.80
2022-09-09T04:12:03.337Z,15.80
2022-09-09T04:14:30.252Z,15.80
2022-09-09T04:16:59.310Z,15.80
2022-09-09T04:19:26.731Z,15.70
2022-09-09T04:21:54.736Z,15.70
2022-09-09T04:24:22.632Z,15.70
2022-09-09T04:26:50.199Z,15.60
2022-09-09T04:29:17.118Z,15.60
2022-09-09T04:31:45.726Z,15.60
2022-09-09T04:34:12.749Z,15.60
2022-09-09T04:36:41.453Z,15.60
2022-09-09T04:39:08.453Z,15.60
2022-09-09T04:41:35.587Z,15.50
2022-09-09T04:44:02.599Z,15.60
2022-09-09T04:46:29.503Z,15.50
2022-09-09T04:48:56.401Z,15.60
2022-09-09T04:51:23.286Z,15.50
2022-09-09T04:53:51.817Z,15.60
2022-09-09T04:56:19.710Z,15.50
2022-09-09T04:58:47.664Z,15.60
2022-09-09T05:01:23.122Z,15.60
2022-09-09T05:03:50.080Z,15.60
2022-09-09T05:06:19.246Z,15.60
2022-09-09T05:08:46.445Z,15.50
2022-09-09T05:11:22.916Z,15.60
2022-09-09T05:13:51.352Z,15.50
2022-09-09T05:16:19.692Z,15.60
2022-09-09T05:18:47.163Z,15.60
2022-09-09T05:21:15.547Z,15.60
2022-09-09T05:23:42.476Z,15.60
2022-09-09T05:26:17.424Z,15.60
2022-09-09T05:28:45.128Z,15.70
2022-09-09T05:31:13.942Z,15.70
2022-09-09T05:33:44.133Z,15.70
2022-09-09T05:36:16.590Z,15.70
2022-09-09T05:38:44.297Z,15.70
2022-09-09T05:41:12.836Z,15.70
2022-09-09T05:43:40.360Z,15.70
2022-09-09T05:46:09.063Z,15.70
2022-09-09T05:48:38.468Z,15.80
2022-09-09T05:51:10.893Z,15.80
2022-09-09T05:53:37.942Z,15.90
2022-09-09T05:56:13.571Z,15.90
2022-09-09T05:58:44.803Z,15.90
2022-09-09T06:01:26.588Z,15.80
2022-09-09T06:03:54.147Z,15.90
2022-09-09T06:06:23.415Z,15.90
2022-09-09T06:08:53.958Z,15.90
2022-09-09T06:11:27.426Z,15.90
2022-09-09T06:13:55.660Z,15.90
2022-09-09T06:16:24.882Z,16.00
2022-09-09T06:18:52.469Z,15.90
2022-09-09T06:21:22.299Z,16.00
2022-09-09T06:23:49.683Z,16.00
2022-09-09T06:26:22.395Z,16.10
2022-09-09T06:28:51.556Z,16.20
2022-09-09T06:31:27.016Z,16.40
2022-09-09T06:33:56.253Z,16.60
2022-09-09T06:36:27.440Z,16.70
2022-09-09T06:38:54.612Z,16.90
2022-09-09T06:41:23.798Z,16.90
2022-09-09T06:43:50.653Z,16.90
2022-09-09T06:46:22.763Z,17.00
2022-09-09T06:48:50.181Z,17.00
2022-09-09T06:51:24.896Z,17.00
2022-09-09T06:53:54.534Z,16.90
2022-09-09T06:56:22.756Z,16.70
2022-09-09T06:58:52.814Z,16.60
2022-09-09T07:01:22.722Z,16.50
2022-09-09T07:03:55.543Z,16.50
2022-09-09T07:06:28.797Z,16.40
2022-09-09T07:08:58.821Z,16.30
2022-09-09T07:11:28.457Z,16.30
2022-09-09T07:13:56.563Z,16.30
2022-09-09T07:16:25.777Z,16.20
2022-09-09T07:18:53.649Z,16.20
2022-09-09T07:21:22.688Z,16.20
2022-09-09T07:23:49.772Z,16.20
2022-09-09T07:26:21.427Z,16.20
2022-09-09T07:28:49.062Z,16.20
2022-09-09T07:31:22.724Z,16.20
2022-09-09T07:33:49.937Z,16.20
2022-09-09T07:36:23.801Z,16.20
2022-09-09T07:38:54.274Z,16.20
2022-09-09T07:41:39.612Z,16.20
2022-09-09T07:44:12.148Z,16.20
2022-09-09T07:46:42.706Z,16.30
2022-09-09T07:49:10.816Z,16.30
2022-09-09T07:51:40.540Z,16.30
2022-09-09T07:54:10.673Z,16.30
2022-09-09T07:56:40.221Z,16.30
2022-09-09T07:59:08.600Z,16.30
2022-09-09T08:01:40.236Z,16.30
2022-09-09T08:04:18.834Z,16.30
2022-09-09T08:06:53.041Z,16.40
2022-09-09T08:09:20.404Z,16.40
2022-09-09T08:11:48.155Z,16.50
2022-09-09T08:14:15.856Z,16.60
2022-09-09T08:16:48.563Z,16.70
2022-09-09T08:19:18.728Z,16.70
2022-09-09T08:21:45.932Z,16.70
2022-09-09T08:24:16.220Z,16.70
2022-09-09T08:26:48.334Z,16.90
2022-09-09T08:29:15.572Z,17.20
2022-09-09T08:31:55.522Z,17.30
2022-09-09T08:34:22.890Z,17.40
2022-09-09T08:36:51.343Z,17.30
2022-09-09T08:39:21.541Z,17.30
2022-09-09T08:42:04.448Z,17.20
2022-09-09T08:45:03.892Z,17.30
2022-09-09T08:47:54.206Z,17.30
2022-09-09T08:50:29.081Z,17.60
2022-09-09T08:53:08.914Z,17.80
2022-09-09T08:55:44.702Z,18.10
2022-09-09T08:58:15.069Z,18.30
2022-09-09T09:00:56.441Z,18.30
2022-09-09T09:03:27.297Z,18.50
2022-09-09T09:06:13.761Z,18.50
2022-09-09T09:08:45.177Z,18.40
2022-09-09T09:11:12.461Z,18.30
2022-09-09T09:13:53.080Z,18.20
2022-09-09T09:16:34.861Z,18.10
2022-09-09T09:19:02.348Z,18.00
2022-09-09T09:21:45.993Z,18.00
2022-09-09T09:24:24.621Z,18.10
2022-09-09T09:26:51.906Z,18.10
2022-09-09T09:29:21.156Z,18.20
2022-09-09T09:31:57.922Z,18.30
2022-09-09T09:34:26.144Z,18.50
2022-09-09T09:36:59.362Z,18.50
2022-09-09T09:42:25.119Z,18.20
2022-09-09T09:44:52.084Z,18.10
2022-09-09T09:47:24.588Z,18.00
2022-09-09T09:50:00.606Z,17.90
2022-09-09T09:52:30.990Z,17.90
2022-09-09T09:55:05.238Z,17.80
2022-09-09T09:57:35.348Z,17.80
2022-09-09T10:00:19.943Z,17.70
2022-09-09T10:02:48.029Z,17.80
2022-09-09T10:05:23.242Z,17.80
2022-09-09T10:08:26.689Z,18.00
2022-09-09T10:11:05.453Z,18.00
2022-09-09T10:14:08.155Z,18.20
2022-09-09T10:17:05.769Z,18.80
2022-09-09T10:19:37.832Z,19.10
2022-09-09T10:22:21.711Z,19.00
2022-09-09T10:24:51.755Z,18.70
2022-09-09T10:27:33.591Z,18.40
2022-09-09T10:30:12.560Z,18.30
2022-09-09T10:32:48.525Z,18.00
2022-09-09T10:35:26.487Z,17.90
2022-09-09T10:38:20.006Z,17.80
2022-09-09T10:41:28.491Z,17.60
2022-09-09T10:44:07.422Z,17.60
2022-09-09T10:47:08.077Z,17.70
2022-09-09T10:49:48.905Z,17.60
2022-09-09T10:52:30.452Z,17.50
2022-09-09T10:55:18.507Z,17.50
2022-09-09T10:57:51.148Z,17.40
2022-09-09T11:00:24.287Z,17.30
2022-09-09T11:03:05.385Z,17.30
2022-09-09T11:05:50.654Z,17.30
2022-09-09T11:11:04.744Z,17.30
2022-09-09T11:13:50.644Z,17.30
2022-09-09T11:16:28.495Z,17.30
2022-09-09T11:19:12.761Z,17.40
2022-09-09T11:21:46.900Z,17.40
2022-09-09T11:24:34.365Z,17.50
2022-09-09T11:27:17.267Z,17.50
2022-09-09T11:30:44.082Z,17.60
2022-09-09T11:33:45.345Z,17.60
2022-09-09T11:36:36.316Z,17.70
2022-09-09T11:39:41.561Z,17.70
2022-09-09T11:42:20.845Z,17.80
2022-09-09T11:44:48.108Z,17.80
2022-09-09T11:47:33.277Z,17.80
2022-09-09T11:50:19.074Z,17.80
2022-09-09T11:52:48.456Z,17.80
2022-09-09T11:55:37.948Z,17.80
2022-09-09T11:58:18.087Z,17.80
2022-09-09T12:00:48.123Z,17.80
2022-09-09T12:03:36.229Z,17.80
2022-09-09T12:06:33.053Z,17.70
2022-09-09T12:09:19.137Z,17.50
2022-09-09T12:11:46.218Z,17.50
2022-09-09T12:14:42.609Z,17.50
2022-09-09T12:17:24.361Z,17.70
2022-09-09T12:20:13.712Z,17.80
2022-09-09T12:22:58.539Z,18.00
2022-09-09T12:25:31.371Z,18.10
2022-09-09T12:28:28.799Z,18.20
2022-09-09T12:31:19.112Z,18.40
2022-09-09T12:33:48.595Z,18.50
2022-09-09T12:36:23.300Z,18.60
2022-09-09T12:38:52.484Z,18.80
2022-09-09T12:41:27.950Z,19.00
2022-09-09T12:44:10.497Z,19.30
2022-09-09T12:46:44.614Z,19.50
2022-09-09T12:49:35.036Z,19.60
2022-09-09T12:52:18.208Z,19.60
2022-09-09T12:54:48.180Z,19.50
2022-09-09T12:57:16.088Z,19.40
2022-09-09T12:59:49.375Z,19.20
2022-09-09T13:02:24.460Z,19.10
2022-09-09T13:04:52.175Z,19.00
2022-09-09T13:07:20.817Z,19.00
2022-09-09T13:09:49.942Z,19.00
2022-09-09T13:12:23.693Z,19.40
2022-09-09T13:14:55.895Z,19.70
2022-09-09T13:17:32.598Z,19.80
2022-09-09T13:19:59.630Z,19.70
2022-09-09T13:22:39.931Z,19.50
2022-09-09T13:25:11.167Z,19.30
2022-09-09T13:27:40.252Z,19.30
2022-09-09T13:30:33.532Z,19.30
2022-09-09T13:33:13.260Z,19.00
2022-09-09T13:35:53.046Z,18.80
2022-09-09T13:38:27.063Z,18.60
2022-09-09T13:41:05.728Z,18.40
2022-09-09T13:43:45.995Z,18.50
2022-09-09T13:46:41.754Z,18.70
2022-09-09T13:49:11.358Z,18.90
2022-09-09T13:52:04.272Z,19.10
2022-09-09T13:54:31.834Z,19.20
2022-09-09T13:56:58.700Z,19.20
2022-09-09T13:59:38.071Z,19.30
2022-09-09T14:02:14.899Z,19.40
2022-09-09T14:04:44.665Z,19.40
2022-09-09T14:07:16.606Z,19.30
2022-09-09T14:09:43.712Z,19.00
2022-09-09T14:12:13.013Z,18.90
2022-09-09T14:14:40.272Z,18.90
2022-09-09T14:17:08.221Z,19.10
2022-09-09T14:19:35.444Z,19.40
2022-09-09T14:22:02.323Z,19.70
2022-09-09T14:24:29.223Z,19.90
2022-09-09T14:26:56.611Z,19.80
2022-09-09T14:29:23.500Z,19.80
2022-09-09T14:31:50.339Z,19.60
2022-09-09T14:34:17.232Z,19.40
2022-09-09T14:36:45.752Z,19.20
2022-09-09T14:39:12.816Z,19.10
2022-09-09T14:41:39.779Z,18.90
2022-09-09T14:44:06.701Z,18.70
2022-09-09T14:46:34.532Z,18.60
2022-09-09T14:49:01.527Z,18.60
2022-09-09T14:51:29.263Z,18.50
2022-09-09T14:53:59.258Z,18.60
2022-09-09T14:56:29.095Z,18.50
2022-09-09T14:58:57.176Z,18.50
2022-09-09T15:01:25.242Z,18.40
2022-09-09T15:04:01.675Z,18.50
2022-09-09T15:06:31.077Z,18.50
2022-09-09T15:09:01.404Z,18.50
2022-09-09T15:11:31.624Z,18.50
2022-09-09T15:14:01.651Z,18.50
2022-09-09T15:16:29.801Z,18.40
2022-09-09T15:19:00.297Z,18.30
2022-09-09T15:21:36.275Z,18.30
2022-09-09T15:24:05.569Z,18.20
2022-09-09T15:26:37.312Z,18.20
2022-09-09T15:29:06.664Z,18.10
2022-09-09T15:31:34.734Z,18.10
2022-09-09T15:34:04.330Z,18.00
2022-09-09T15:36:38.129Z,18.10
2022-09-09T15:39:08.244Z,18.00
2022-09-09T15:41:36.809Z,18.10
2022-09-09T15:44:06.891Z,18.10
2022-09-09T15:46:44.581Z,18.30
2022-09-09T15:49:26.441Z,18.30
2022-09-09T15:51:59.370Z,18.40
2022-09-09T15:54:33.156Z,18.40
2022-09-09T15:57:05.140Z,18.50
2022-09-09T15:59:35.228Z,18.50
2022-09-09T16:02:06.294Z,18.50
2022-09-09T16:04:36.405Z,18.50
2022-09-09T16:07:06.664Z,18.40
2022-09-09T16:09:36.761Z,18.40
2022-09-09T16:12:10.823Z,18.30
2022-09-09T16:14:41.868Z,18.20
2022-09-09T16:17:12.274Z,18.20
2022-09-09T16:19:39.188Z,18.20
2022-09-09T16:22:09.507Z,18.10
2022-09-09T16:24:39.719Z,18.20
2022-09-09T16:27:10.009Z,18.10
2022-09-09T16:29:39.993Z,18.10
2022-09-09T16:32:07.040Z,18.10
2022-09-09T16:34:36.951Z,18.00
2022-09-09T16:37:07.009Z,18.00
2022-09-09T16:39:36.945Z,18.00
2022-09-09T16:42:05.818Z,17.90
2022-09-09T16:44:45.081Z,17.90
2022-09-09T16:47:15.069Z,17.90
2022-09-09T16:49:48.061Z,17.90
2022-09-09T16:52:20.367Z,17.80
2022-09-09T16:54:47.538Z,17.90
2022-09-09T16:57:15.484Z,17.90
2022-09-09T16:59:43.589Z,17.90
2022-09-09T17:02:16.635Z,18.00
2022-09-09T17:04:46.705Z,18.00
2022-09-09T17:07:16.757Z,18.00
2022-09-09T17:09:43.997Z,18.00
2022-09-09T17:12:14.026Z,18.10
2022-09-09T17:14:43.316Z,18.10
2022-09-09T17:17:30.768Z,18.10
2022-09-09T17:19:58.363Z,18.10
2022-09-09T17:22:27.686Z,18.10
2022-09-09T17:24:55.851Z,18.00
2022-09-09T17:27:23.748Z,18.00
2022-09-09T17:29:53.859Z,18.10
2022-09-09T17:32:20.693Z,18.10
2022-09-09T17:34:47.575Z,18.10
2022-09-09T17:37:17.602Z,18.10
2022-09-09T17:39:47.685Z,18.00
2022-09-09T17:42:17.860Z,18.00
2022-09-09T17:44:47.856Z,18.00
2022-09-09T17:47:15.789Z,18.00
2022-09-09T17:49:44.783Z,18.00
2022-09-09T17:52:13.738Z,17.90
2022-09-09T17:54:42.554Z,17.90
2022-09-09T17:57:10.004Z,18.00
2022-09-09T17:59:38.934Z,18.00
2022-09-09T18:02:07.298Z,18.00
2022-09-09T18:04:37.425Z,18.00
2022-09-09T18:07:07.500Z,18.00
2022-09-09T18:09:35.480Z,18.00
2022-09-09T18:12:05.649Z,17.90
2022-09-09T18:14:35.708Z,17.90
2022-09-09T18:17:04.802Z,17.90
2022-09-09T18:19:37.756Z,17.90
2022-09-09T18:22:07.504Z,17.80
2022-09-09T18:24:36.394Z,17.80
2022-09-09T18:27:03.829Z,17.80
2022-09-09T18:29:34.420Z,17.70
2022-09-09T18:32:04.535Z,17.70
2022-09-09T18:34:31.579Z,17.70
2022-09-09T18:36:59.603Z,17.70
2022-09-09T18:39:29.903Z,17.70
2022-09-09T18:42:01.116Z,17.70
2022-09-09T18:44:35.776Z,17.80
2022-09-09T18:47:07.851Z,17.80
2022-09-09T18:49:36.844Z,17.80
2022-09-09T18:52:10.914Z,17.80
2022-09-09T18:54:46.056Z,17.80
2022-09-09T18:57:13.015Z,17.80
2022-09-09T18:59:40.962Z,17.90
2022-09-09T19:02:12.264Z,17.80
2022-09-09T19:04:39.307Z,17.80
2022-09-09T19:07:07.271Z,17.80
2022-09-09T19:09:34.328Z,17.70
2022-09-09T19:12:03.415Z,17.70
2022-09-09T19:14:30.555Z,17.70
2022-09-09T19:16:58.201Z,17.60
2022-09-09T19:19:29.136Z,17.60
2022-09-09T19:21:57.822Z,17.60
2022-09-09T19:24:28.308Z,17.50
2022-09-09T19:26:58.615Z,17.50
2022-09-09T19:29:27.344Z,17.50
2022-09-09T19:34:44.811Z,17.40
2022-09-09T19:37:16.330Z,17.40
2022-09-09T19:39:46.119Z,17.40
2022-09-09T19:42:13.265Z,17.30
2022-09-09T19:44:40.213Z,17.30
2022-09-09T19:47:07.372Z,17.20
2022-09-09T19:49:35.355Z,17.10
2022-09-09T19:52:02.539Z,17.10
2022-09-09T19:54:29.452Z,17.10
2022-09-09T19:56:56.764Z,17.00
2022-09-09T19:59:23.711Z,17.00
2022-09-09T20:01:51.469Z,17.00
2022-09-09T20:04:18.784Z,17.00
2022-09-09T20:06:46.271Z,16.90
2022-09-09T20:09:15.872Z,16.90
2022-09-09T20:11:44.313Z,16.90
2022-09-09T20:14:12.330Z,16.90
2022-09-09T20:16:39.965Z,16.80
2022-09-09T20:19:10.363Z,16.80
2022-09-09T20:21:47.288Z,16.80
2022-09-09T20:24:16.873Z,16.80
2022-09-09T20:26:44.953Z,16.80
2022-09-09T20:29:16.209Z,16.80
2022-09-09T20:31:44.067Z,16.80
2022-09-09T20:34:18.698Z,16.90
2022-09-09T20:36:46.359Z,16.90
2022-09-09T20:39:16.306Z,16.90
2022-09-09T20:41:45.660Z,17.00
2022-09-09T20:44:16.729Z,17.00
2022-09-09T20:46:50.254Z,17.00
2022-09-09T20:49:19.419Z,17.00
2022-09-09T20:51:48.060Z,17.00
2022-09-09T20:54:21.102Z,17.00
2022-09-09T20:56:48.433Z,17.00
2022-09-09T20:59:18.459Z,17.00
2022-09-09T21:01:47.895Z,17.00
2022-09-09T21:04:16.720Z,17.00
2022-09-09T21:06:43.754Z,17.00
2022-09-09T21:09:10.778Z,17.00
2022-09-09T21:11:37.895Z,17.00
2022-09-09T21:14:05.065Z,17.00
2022-09-09T21:16:31.944Z,17.00
2022-09-09T21:19:01.991Z,16.90
2022-09-09T21:21:29.149Z,17.00
2022-09-09T21:23:58.448Z,16.90
2022-09-09T21:26:26.088Z,16.90
2022-09-09T21:28:53.793Z,16.90
2022-09-09T21:31:25.701Z,16.90
2022-09-09T21:33:54.627Z,16.90
2022-09-09T21:36:21.474Z,16.90
2022-09-09T21:38:48.319Z,16.90
2022-09-09T21:41:16.489Z,16.90
2022-09-09T21:43:45.105Z,16.90
2022-09-09T21:46:15.500Z,16.90
2022-09-09T21:48:43.038Z,16.90
2022-09-09T21:51:13.177Z,16.90
2022-09-09T21:53:41.083Z,16.90
2022-09-09T21:56:14.396Z,16.90
2022-09-09T21:58:42.708Z,16.90
2022-09-09T22:01:18.075Z,16.90
2022-09-09T22:03:46.042Z,16.90
2022-09-09T22:06:15.382Z,16.90
2022-09-09T22:08:43.131Z,17.00
2022-09-09T22:11:13.220Z,17.00
2022-09-09T22:13:40.330Z,17.00
2022-09-09T22:16:09.360Z,17.00
2022-09-09T22:18:36.846Z,17.00
2022-09-09T22:21:10.009Z,17.00
2022-09-09T22:23:37.017Z,17.00
2022-09-09T22:26:04.962Z,17.00
2022-09-09T22:28:33.829Z,17.00
2022-09-09T22:31:01.067Z,17.10
2022-09-09T22:33:28.280Z,17.10
2022-09-09T22:35:55.158Z,17.00
2022-09-09T22:38:22.416Z,17.10
2022-09-09T22:40:49.659Z,17.10
2022-09-09T22:43:19.894Z,17.10
2022-09-09T22:45:47.611Z,17.10
2022-09-09T22:48:15.623Z,17.10
2022-09-09T22:50:42.803Z,17.10
2022-09-09T22:53:15.911Z,17.00
2022-09-09T22:55:58.622Z,16.90
2022-09-09T22:58:31.344Z,16.80
2022-09-09T23:00:59.133Z,16.80
2022-09-09T23:03:32.564Z,16.80
2022-09-09T23:06:01.599Z,16.90
2022-09-09T23:08:34.574Z,17.00
2022-09-09T23:11:09.223Z,17.00
2022-09-09T23:13:43.810Z,17.00
2022-09-09T23:16:10.901Z,17.00
2022-09-09T23:18:40.366Z,17.00
2022-09-09T23:21:08.605Z,17.00
2022-09-09T23:23:35.471Z,17.00
2022-09-09T23:26:04.211Z,17.00
2022-09-09T23:28:36.284Z,17.00
2022-09-09T23:31:09.967Z,17.00
2022-09-09T23:33:37.380Z,17.00
2022-09-09T23:36:09.870Z,17.00
2022-09-09T23:38:39.624Z,17.00
2022-09-09T23:41:09.532Z,17.00
2022-09-09T23:43:39.518Z,17.00
2022-09-09T23:46:09.050Z,17.00
2022-09-09T23:48:39.229Z,17.00
2022-09-09T23:51:09.532Z,17.00
2022-09-09T23:53:37.483Z,17.00
2022-09-09T23:56:05.297Z,17.00
2022-09-09T23:58:33.448Z,16.90
